OAL458 LIRF-LCLK
Flight info
| Callsign | OAL458 |
|---|---|
| Flight time | N/A |
| Altitude | 35000 |
| Route | PEPIX L50 UNIXO DCT RUTOM DCT TRL DCT EVENO DCT DASNI DCT BONEK |
| Aircraft | A320/M-SDE3FGHIRWY/LB1 |
Departure
| Time | 2026-05-07 13:03 |
|---|---|
| Airport | Rome–Fiumicino Leonardo da Vinci International Airport (LIRF) |
Arrival
| Time | N/A |
|---|---|
| Airport | Larnaca International Airport (LCLK) |
| Time | Latitude | Longitude | Altitude | Speed | Heading |
|---|---|---|---|---|---|
| 2026-05-07 12:47 | 41.79912 | 12.25369 | 14 ft | 0 kts | 257° |
| 2026-05-07 12:55 | 41.79913 | 12.25369 | 14 ft | 0 kts | 257° |
| 2026-05-07 12:56 | 41.79917 | 12.25398 | 14 ft | 4 kts | 261° |
| 2026-05-07 12:56 | 41.79919 | 12.25433 | 14 ft | 4 kts | 277° |
| 2026-05-07 12:56 | 41.79912 | 12.25460 | 16 ft | 4 kts | 353° |
| 2026-05-07 12:56 | 41.79904 | 12.25459 | 15 ft | 1 kts | 24° |
| 2026-05-07 12:57 | 41.79903 | 12.25459 | 15 ft | 0 kts | 24° |
| 2026-05-07 12:59 | 41.79904 | 12.25459 | 15 ft | 0 kts | 24° |
| 2026-05-07 12:59 | 41.79911 | 12.25464 | 15 ft | 3 kts | 24° |
| 2026-05-07 12:59 | 41.79943 | 12.25483 | 14 ft | 7 kts | 24° |
| 2026-05-07 12:59 | 41.79986 | 12.25445 | 14 ft | 10 kts | 295° |
| 2026-05-07 13:00 | 41.80020 | 12.25348 | 15 ft | 11 kts | 301° |
| 2026-05-07 13:00 | 41.80099 | 12.25356 | 15 ft | 14 kts | 20° |
| 2026-05-07 13:00 | 41.80207 | 12.25408 | 14 ft | 18 kts | 20° |
| 2026-05-07 13:00 | 41.80324 | 12.25498 | 16 ft | 21 kts | 62° |
| 2026-05-07 13:01 | 41.80379 | 12.25699 | 15 ft | 25 kts | 70° |
| 2026-05-07 13:01 | 41.80443 | 12.25939 | 15 ft | 29 kts | 70° |
| 2026-05-07 13:01 | 41.80518 | 12.26204 | 16 ft | 33 kts | 69° |
| 2026-05-07 13:01 | 41.80603 | 12.26508 | 15 ft | 36 kts | 70° |
| 2026-05-07 13:02 | 41.80681 | 12.26792 | 14 ft | 30 kts | 70° |
| 2026-05-07 13:02 | 41.80747 | 12.27021 | 13 ft | 23 kts | 54° |
| 2026-05-07 13:02 | 41.80888 | 12.27003 | 13 ft | 18 kts | 340° |
| 2026-05-07 13:02 | 41.80958 | 12.26943 | 12 ft | 14 kts | 283° |
| 2026-05-07 13:03 | 41.80915 | 12.26771 | 14 ft | 43 kts | 250° |
| 2026-05-07 13:03 | 41.80714 | 12.26041 | 18 ft | 121 kts | 250° |
| 2026-05-07 13:03 | 41.80395 | 12.24871 | 39 ft | 171 kts | 252° |
| 2026-05-07 13:03 | 41.79984 | 12.23363 | 763 ft | 173 kts | 250° |
| 2026-05-07 13:04 | 41.79553 | 12.21863 | 1674 ft | 172 kts | 249° |
| 2026-05-07 13:04 | 41.79278 | 12.20292 | 2165 ft | 179 kts | 268° |
| 2026-05-07 13:04 | 41.79237 | 12.18512 | 2347 ft | 203 kts | 269° |
| 2026-05-07 13:04 | 41.79167 | 12.16568 | 2771 ft | 213 kts | 260° |
| 2026-05-07 13:05 | 41.78658 | 12.14707 | 3373 ft | 215 kts | 236° |
| 2026-05-07 13:05 | 41.77654 | 12.13224 | 4018 ft | 216 kts | 222° |
| 2026-05-07 13:05 | 41.76550 | 12.11864 | 4713 ft | 216 kts | 222° |
| 2026-05-07 13:05 | 41.75445 | 12.10499 | 5374 ft | 217 kts | 222° |
| 2026-05-07 13:06 | 41.74333 | 12.09122 | 6032 ft | 219 kts | 223° |
| 2026-05-07 13:06 | 41.73212 | 12.07735 | 6660 ft | 220 kts | 223° |
| 2026-05-07 13:06 | 41.72082 | 12.06337 | 7302 ft | 221 kts | 223° |
| 2026-05-07 13:06 | 41.70858 | 12.05090 | 7947 ft | 223 kts | 207° |
| 2026-05-07 13:07 | 41.69372 | 12.04419 | 8405 ft | 236 kts | 188° |
| 2026-05-07 13:07 | 41.67655 | 12.04358 | 8691 ft | 256 kts | 180° |
| 2026-05-07 13:07 | 41.65902 | 12.04371 | 9579 ft | 249 kts | 181° |
| 2026-05-07 13:07 | 41.64171 | 12.04382 | 10323 ft | 249 kts | 180° |
| 2026-05-07 13:08 | 41.62453 | 12.04739 | 10977 ft | 252 kts | 169° |
| 2026-05-07 13:08 | 41.60739 | 12.05259 | 11644 ft | 253 kts | 169° |
| 2026-05-07 13:08 | 41.59020 | 12.05785 | 12303 ft | 254 kts | 170° |
| 2026-05-07 13:08 | 41.57290 | 12.06316 | 12924 ft | 258 kts | 170° |
| 2026-05-07 13:09 | 41.55526 | 12.06858 | 13499 ft | 262 kts | 170° |
| 2026-05-07 13:09 | 41.53739 | 12.07406 | 14083 ft | 264 kts | 171° |
| 2026-05-07 13:09 | 41.51940 | 12.07956 | 14644 ft | 267 kts | 171° |
| 2026-05-07 13:09 | 41.50123 | 12.08510 | 15197 ft | 269 kts | 172° |
| 2026-05-07 13:10 | 41.48293 | 12.09067 | 15745 ft | 271 kts | 172° |
| 2026-05-07 13:10 | 41.46470 | 12.09621 | 16287 ft | 273 kts | 172° |
| 2026-05-07 13:10 | 41.44607 | 12.10190 | 16828 ft | 276 kts | 172° |
| 2026-05-07 13:10 | 41.42730 | 12.10763 | 17368 ft | 278 kts | 173° |
| 2026-05-07 13:11 | 41.40835 | 12.11341 | 17902 ft | 281 kts | 173° |
| 2026-05-07 13:11 | 41.38923 | 12.11922 | 18416 ft | 283 kts | 173° |
| 2026-05-07 13:11 | 41.37004 | 12.12504 | 18873 ft | 285 kts | 173° |
| 2026-05-07 13:11 | 41.35038 | 12.13098 | 19164 ft | 295 kts | 173° |
| 2026-05-07 13:12 | 41.33010 | 12.13710 | 19527 ft | 301 kts | 173° |
| 2026-05-07 13:12 | 41.30961 | 12.14329 | 19969 ft | 304 kts | 173° |
| 2026-05-07 13:12 | 41.28889 | 12.14957 | 20420 ft | 307 kts | 173° |
| 2026-05-07 13:12 | 41.26801 | 12.15590 | 20865 ft | 309 kts | 173° |
| 2026-05-07 13:13 | 41.24697 | 12.16224 | 21298 ft | 312 kts | 173° |
| 2026-05-07 13:13 | 41.22577 | 12.16863 | 21723 ft | 314 kts | 173° |
| 2026-05-07 13:13 | 41.20433 | 12.17512 | 22142 ft | 316 kts | 173° |
| 2026-05-07 13:13 | 41.18302 | 12.18358 | 22549 ft | 324 kts | 165° |
| 2026-05-07 13:14 | 41.16231 | 12.19627 | 22948 ft | 332 kts | 157° |
| 2026-05-07 13:14 | 41.14268 | 12.21314 | 23342 ft | 340 kts | 148° |
| 2026-05-07 13:14 | 41.12468 | 12.23401 | 23698 ft | 348 kts | 141° |
| 2026-05-07 13:14 | 41.10731 | 12.25658 | 24026 ft | 350 kts | 142° |
| 2026-05-07 13:15 | 41.08985 | 12.27916 | 24366 ft | 352 kts | 142° |
| 2026-05-07 13:15 | 41.07222 | 12.30185 | 24712 ft | 354 kts | 142° |
| 2026-05-07 13:15 | 41.05446 | 12.32466 | 25034 ft | 356 kts | 143° |
| 2026-05-07 13:15 | 41.03661 | 12.34755 | 25364 ft | 358 kts | 143° |
| 2026-05-07 13:16 | 41.01865 | 12.37059 | 25702 ft | 361 kts | 143° |
| 2026-05-07 13:16 | 41.00081 | 12.39347 | 26019 ft | 362 kts | 143° |
| 2026-05-07 13:16 | 40.98266 | 12.41674 | 26347 ft | 364 kts | 144° |
| 2026-05-07 13:16 | 40.96439 | 12.44014 | 26679 ft | 366 kts | 144° |
| 2026-05-07 13:17 | 40.94605 | 12.46364 | 27003 ft | 368 kts | 144° |
| 2026-05-07 13:17 | 40.92772 | 12.48716 | 27405 ft | 367 kts | 144° |
| 2026-05-07 13:17 | 40.90945 | 12.51060 | 27802 ft | 366 kts | 145° |
| 2026-05-07 13:17 | 40.89120 | 12.53398 | 28190 ft | 365 kts | 145° |
| 2026-05-07 13:18 | 40.87298 | 12.55729 | 28573 ft | 364 kts | 146° |
| 2026-05-07 13:18 | 40.85474 | 12.58055 | 28929 ft | 364 kts | 146° |
| 2026-05-07 13:18 | 40.83642 | 12.60384 | 29232 ft | 366 kts | 146° |
| 2026-05-07 13:18 | 40.81797 | 12.62727 | 29433 ft | 371 kts | 146° |
| 2026-05-07 13:19 | 40.79930 | 12.65130 | 29575 ft | 380 kts | 142° |
| 2026-05-07 13:19 | 40.78203 | 12.67857 | 29713 ft | 395 kts | 134° |
| 2026-05-07 13:19 | 40.76711 | 12.70981 | 29857 ft | 410 kts | 125° |
| 2026-05-07 13:19 | 40.75508 | 12.74448 | 30062 ft | 420 kts | 119° |
| 2026-05-07 13:20 | 40.74383 | 12.78015 | 30327 ft | 422 kts | 120° |
| 2026-05-07 13:20 | 40.73245 | 12.81589 | 30599 ft | 424 kts | 120° |
| 2026-05-07 13:20 | 40.72108 | 12.85132 | 30861 ft | 426 kts | 120° |
| 2026-05-07 13:20 | 40.70949 | 12.88725 | 31125 ft | 428 kts | 120° |
| 2026-05-07 13:21 | 40.69778 | 12.92344 | 31396 ft | 429 kts | 120° |
| 2026-05-07 13:21 | 40.68605 | 12.95971 | 31654 ft | 431 kts | 120° |
| 2026-05-07 13:21 | 40.67428 | 12.99620 | 31900 ft | 433 kts | 120° |
| 2026-05-07 13:21 | 40.66246 | 13.03284 | 32139 ft | 435 kts | 120° |
| 2026-05-07 13:22 | 40.65060 | 13.06956 | 32372 ft | 437 kts | 120° |
| 2026-05-07 13:22 | 40.63863 | 13.10651 | 32576 ft | 440 kts | 120° |
| 2026-05-07 13:22 | 40.62656 | 13.14366 | 32701 ft | 444 kts | 120° |
| 2026-05-07 13:22 | 40.61433 | 13.18124 | 32840 ft | 449 kts | 120° |
| 2026-05-07 13:23 | 40.60200 | 13.21921 | 33000 ft | 452 kts | 120° |
| 2026-05-07 13:23 | 40.58966 | 13.25722 | 33266 ft | 453 kts | 120° |
| 2026-05-07 13:23 | 40.57721 | 13.29539 | 33441 ft | 455 kts | 120° |
| 2026-05-07 13:23 | 40.56461 | 13.33384 | 33600 ft | 459 kts | 120° |
| 2026-05-07 13:24 | 40.55196 | 13.37249 | 33754 ft | 462 kts | 120° |
| 2026-05-07 13:24 | 40.53923 | 13.41140 | 33909 ft | 465 kts | 120° |
| 2026-05-07 13:24 | 40.52659 | 13.45003 | 34045 ft | 467 kts | 120° |
| 2026-05-07 13:24 | 40.51373 | 13.48935 | 34207 ft | 469 kts | 120° |
| 2026-05-07 13:25 | 40.50080 | 13.52885 | 34367 ft | 471 kts | 120° |
| 2026-05-07 13:25 | 40.48777 | 13.56838 | 34525 ft | 472 kts | 121° |
| 2026-05-07 13:25 | 40.47467 | 13.60800 | 34678 ft | 474 kts | 121° |
| 2026-05-07 13:25 | 40.46149 | 13.64781 | 34832 ft | 476 kts | 121° |
| 2026-05-07 13:26 | 40.44829 | 13.68772 | 34957 ft | 479 kts | 121° |
| 2026-05-07 13:26 | 40.43495 | 13.72799 | 34978 ft | 484 kts | 121° |
| 2026-05-07 13:26 | 40.40767 | 13.80998 | 34978 ft | 496 kts | 121° |
| 2026-05-07 13:27 | 40.37973 | 13.89394 | 34973 ft | 509 kts | 121° |
| 2026-05-07 13:27 | 40.35104 | 13.98006 | 34974 ft | 521 kts | 120° |
| 2026-05-07 13:28 | 40.32153 | 14.06819 | 34974 ft | 534 kts | 120° |
| 2026-05-07 13:28 | 40.29132 | 14.15807 | 34976 ft | 542 kts | 120° |
| 2026-05-07 13:29 | 40.26104 | 14.24798 | 34965 ft | 544 kts | 120° |
| 2026-05-07 13:29 | 40.23046 | 14.33856 | 34966 ft | 544 kts | 120° |
| 2026-05-07 13:30 | 40.19984 | 14.42922 | 34958 ft | 545 kts | 120° |
| 2026-05-07 13:30 | 40.16905 | 14.51977 | 34963 ft | 545 kts | 121° |
| 2026-05-07 13:31 | 40.13808 | 14.61015 | 34956 ft | 545 kts | 121° |
| 2026-05-07 13:31 | 40.10706 | 14.70053 | 34954 ft | 545 kts | 121° |
| 2026-05-07 13:32 | 40.07594 | 14.79093 | 34951 ft | 546 kts | 121° |
| 2026-05-07 13:32 | 40.04502 | 14.88076 | 34948 ft | 546 kts | 121° |
| 2026-05-07 13:33 | 40.01380 | 14.97114 | 34950 ft | 546 kts | 121° |
| 2026-05-07 13:33 | 39.98252 | 15.06145 | 34949 ft | 547 kts | 121° |
| 2026-05-07 13:34 | 39.93539 | 15.19675 | 34952 ft | 547 kts | 121° |
| 2026-05-07 13:35 | 39.90386 | 15.28696 | 34957 ft | 547 kts | 121° |
| 2026-05-07 13:35 | 39.87227 | 15.37707 | 34956 ft | 547 kts | 121° |
| 2026-05-07 13:36 | 39.84052 | 15.46713 | 34959 ft | 547 kts | 121° |
| 2026-05-07 13:36 | 39.80873 | 15.55720 | 34962 ft | 548 kts | 121° |
| 2026-05-07 13:37 | 39.77699 | 15.64737 | 34969 ft | 548 kts | 121° |
| 2026-05-07 13:37 | 39.74508 | 15.73730 | 34974 ft | 548 kts | 121° |
| 2026-05-07 13:38 | 39.71301 | 15.82700 | 34981 ft | 548 kts | 121° |
| 2026-05-07 13:38 | 39.68109 | 15.91617 | 34985 ft | 548 kts | 121° |
| 2026-05-07 13:39 | 39.64907 | 16.00573 | 34974 ft | 546 kts | 121° |
| 2026-05-07 13:39 | 39.61697 | 16.09521 | 34990 ft | 547 kts | 121° |
| 2026-05-07 13:40 | 39.58462 | 16.18472 | 34998 ft | 547 kts | 121° |
| 2026-05-07 13:40 | 39.55222 | 16.27401 | 35006 ft | 548 kts | 121° |
| 2026-05-07 13:41 | 39.51985 | 16.36328 | 35012 ft | 548 kts | 121° |
| 2026-05-07 13:41 | 39.48747 | 16.45249 | 35012 ft | 547 kts | 121° |
| 2026-05-07 13:42 | 39.45536 | 16.54071 | 35017 ft | 547 kts | 121° |
| 2026-05-07 13:42 | 39.42249 | 16.63052 | 35023 ft | 547 kts | 121° |
| 2026-05-07 13:43 | 39.39007 | 16.71862 | 35031 ft | 546 kts | 121° |
| 2026-05-07 13:43 | 39.35737 | 16.80722 | 35031 ft | 546 kts | 120° |
| 2026-05-07 13:44 | 39.32468 | 16.89580 | 35047 ft | 546 kts | 120° |
| 2026-05-07 13:44 | 39.29749 | 16.96932 | 35051 ft | 546 kts | 121° |
| 2026-05-07 13:45 | 39.26461 | 17.05769 | 35056 ft | 546 kts | 120° |
| 2026-05-07 13:45 | 39.23164 | 17.14603 | 35057 ft | 546 kts | 120° |
| 2026-05-07 13:46 | 39.19339 | 17.24855 | 35068 ft | 545 kts | 120° |
| 2026-05-07 13:46 | 39.16580 | 17.32224 | 35065 ft | 545 kts | 120° |
| 2026-05-07 13:47 | 39.13279 | 17.41004 | 35069 ft | 544 kts | 120° |
| 2026-05-07 13:47 | 39.09993 | 17.49706 | 35061 ft | 544 kts | 120° |
| 2026-05-07 13:48 | 39.06685 | 17.58466 | 35054 ft | 544 kts | 120° |
| 2026-05-07 13:48 | 39.03367 | 17.67219 | 35053 ft | 544 kts | 120° |
| 2026-05-07 13:49 | 39.00045 | 17.75960 | 35053 ft | 544 kts | 120° |
| 2026-05-07 13:49 | 38.96719 | 17.84679 | 35045 ft | 544 kts | 120° |
| 2026-05-07 13:50 | 38.93382 | 17.93398 | 35052 ft | 543 kts | 120° |
| 2026-05-07 13:50 | 38.90070 | 18.02049 | 35051 ft | 543 kts | 120° |
| 2026-05-07 13:51 | 38.86731 | 18.10745 | 35062 ft | 543 kts | 120° |
| 2026-05-07 13:51 | 38.83382 | 18.19423 | 35058 ft | 542 kts | 120° |
| 2026-05-07 13:52 | 38.80020 | 18.28085 | 35059 ft | 542 kts | 120° |
| 2026-05-07 13:52 | 38.76658 | 18.36739 | 35059 ft | 542 kts | 120° |
| 2026-05-07 13:53 | 38.73295 | 18.45396 | 35068 ft | 542 kts | 120° |
| 2026-05-07 13:53 | 38.69924 | 18.54040 | 35069 ft | 543 kts | 120° |
| 2026-05-07 13:54 | 38.66546 | 18.62677 | 35069 ft | 543 kts | 120° |
| 2026-05-07 13:54 | 38.63166 | 18.71309 | 35072 ft | 543 kts | 120° |
| 2026-05-07 13:55 | 38.59772 | 18.79941 | 35072 ft | 543 kts | 120° |
| 2026-05-07 13:55 | 38.56387 | 18.88507 | 35075 ft | 544 kts | 120° |
| 2026-05-07 13:56 | 38.52970 | 18.97126 | 35078 ft | 544 kts | 120° |
| 2026-05-07 13:56 | 38.49710 | 19.05849 | 35074 ft | 545 kts | 115° |
| 2026-05-07 13:57 | 38.46936 | 19.14874 | 35081 ft | 546 kts | 111° |
| 2026-05-07 13:57 | 38.44285 | 19.23958 | 35083 ft | 546 kts | 112° |
| 2026-05-07 13:58 | 38.41484 | 19.32963 | 35084 ft | 546 kts | 114° |
| 2026-05-07 13:58 | 38.38570 | 19.41911 | 35085 ft | 546 kts | 114° |
| 2026-05-07 13:59 | 38.35667 | 19.50860 | 35086 ft | 546 kts | 114° |
| 2026-05-07 13:59 | 38.32795 | 19.59821 | 35085 ft | 547 kts | 113° |
| 2026-05-07 14:00 | 38.29941 | 19.68729 | 35089 ft | 547 kts | 114° |
| 2026-05-07 14:00 | 38.27053 | 19.77689 | 35091 ft | 547 kts | 113° |
| 2026-05-07 14:01 | 38.24156 | 19.86643 | 35093 ft | 548 kts | 113° |
| 2026-05-07 14:01 | 38.21244 | 19.95605 | 35101 ft | 548 kts | 114° |
| 2026-05-07 14:02 | 38.18327 | 20.04555 | 35099 ft | 548 kts | 113° |
| 2026-05-07 14:02 | 38.15401 | 20.13503 | 35109 ft | 548 kts | 113° |
| 2026-05-07 14:03 | 38.12462 | 20.22442 | 35114 ft | 548 kts | 113° |
| 2026-05-07 14:03 | 38.09526 | 20.31374 | 35123 ft | 548 kts | 113° |
| 2026-05-07 14:04 | 38.06601 | 20.40245 | 35125 ft | 548 kts | 113° |
| 2026-05-07 14:04 | 38.03645 | 20.49163 | 35116 ft | 548 kts | 113° |
| 2026-05-07 14:05 | 38.00684 | 20.58073 | 35119 ft | 548 kts | 113° |
| 2026-05-07 14:05 | 37.97714 | 20.66985 | 35122 ft | 549 kts | 113° |
| 2026-05-07 14:06 | 37.94742 | 20.75890 | 35120 ft | 549 kts | 113° |
| 2026-05-07 14:06 | 37.91764 | 20.84790 | 35124 ft | 549 kts | 113° |
| 2026-05-07 14:07 | 37.88774 | 20.93687 | 35125 ft | 549 kts | 113° |
| 2026-05-07 14:07 | 37.85793 | 21.02513 | 35119 ft | 549 kts | 113° |
| 2026-05-07 14:08 | 37.82787 | 21.11399 | 35131 ft | 550 kts | 113° |
| 2026-05-07 14:08 | 37.79772 | 21.20286 | 35122 ft | 550 kts | 113° |
| 2026-05-07 14:09 | 37.76751 | 21.29163 | 35124 ft | 550 kts | 113° |
| 2026-05-07 14:09 | 37.73724 | 21.38038 | 35130 ft | 550 kts | 113° |
| 2026-05-07 14:10 | 37.70687 | 21.46913 | 35123 ft | 551 kts | 113° |
| 2026-05-07 14:10 | 37.67640 | 21.55788 | 35120 ft | 551 kts | 113° |
| 2026-05-07 14:11 | 37.64586 | 21.64654 | 35125 ft | 551 kts | 113° |
| 2026-05-07 14:11 | 37.61550 | 21.73452 | 35119 ft | 550 kts | 113° |
| 2026-05-07 14:12 | 37.58484 | 21.82299 | 35124 ft | 551 kts | 113° |
| 2026-05-07 14:12 | 37.55410 | 21.91146 | 35140 ft | 551 kts | 113° |
| 2026-05-07 14:13 | 37.52327 | 21.99983 | 35128 ft | 551 kts | 113° |
| 2026-05-07 14:13 | 37.49244 | 22.08798 | 35135 ft | 551 kts | 113° |
| 2026-05-07 14:14 | 37.46153 | 22.17627 | 35131 ft | 551 kts | 113° |
| 2026-05-07 14:14 | 37.43054 | 22.26447 | 35127 ft | 551 kts | 113° |
| 2026-05-07 14:15 | 37.40236 | 22.35314 | 35127 ft | 548 kts | 103° |
| 2026-05-07 14:15 | 37.38580 | 22.44634 | 35132 ft | 546 kts | 98° |
| 2026-05-07 14:16 | 37.36994 | 22.53979 | 35130 ft | 546 kts | 98° |
| 2026-05-07 14:16 | 37.35391 | 22.63318 | 35136 ft | 547 kts | 98° |
| 2026-05-07 14:17 | 37.33785 | 22.72591 | 35148 ft | 546 kts | 98° |
| 2026-05-07 14:17 | 37.32169 | 22.81910 | 35143 ft | 546 kts | 98° |
| 2026-05-07 14:18 | 37.30556 | 22.91221 | 35137 ft | 545 kts | 98° |
| 2026-05-07 14:18 | 37.28934 | 23.00516 | 35135 ft | 545 kts | 99° |
| 2026-05-07 14:19 | 37.27300 | 23.09797 | 35139 ft | 544 kts | 99° |
| 2026-05-07 14:19 | 37.25661 | 23.19069 | 35139 ft | 543 kts | 99° |
| 2026-05-07 14:20 | 37.24015 | 23.28320 | 35134 ft | 543 kts | 99° |
| 2026-05-07 14:20 | 37.22366 | 23.37547 | 35140 ft | 542 kts | 99° |
| 2026-05-07 14:21 | 37.20730 | 23.46706 | 35136 ft | 541 kts | 99° |
| 2026-05-07 14:21 | 37.19079 | 23.55901 | 35140 ft | 540 kts | 99° |
| 2026-05-07 14:22 | 37.17417 | 23.65078 | 35142 ft | 539 kts | 99° |
| 2026-05-07 14:22 | 37.15747 | 23.74244 | 35150 ft | 539 kts | 99° |
| 2026-05-07 14:23 | 37.14079 | 23.83389 | 35157 ft | 538 kts | 99° |
| 2026-05-07 14:23 | 37.12408 | 23.92515 | 35157 ft | 536 kts | 100° |
| 2026-05-07 14:24 | 37.10749 | 24.01547 | 35159 ft | 535 kts | 100° |
| 2026-05-07 14:24 | 37.09072 | 24.10605 | 35161 ft | 533 kts | 100° |
| 2026-05-07 14:25 | 37.07395 | 24.19643 | 35166 ft | 532 kts | 100° |
| 2026-05-07 14:25 | 37.05714 | 24.28642 | 35168 ft | 530 kts | 100° |
| 2026-05-07 14:26 | 37.04027 | 24.37613 | 35169 ft | 529 kts | 101° |
| 2026-05-07 14:26 | 37.02339 | 24.46561 | 35171 ft | 527 kts | 101° |
| 2026-05-07 14:27 | 37.00650 | 24.55486 | 35172 ft | 526 kts | 101° |
| 2026-05-07 14:27 | 36.98974 | 24.64317 | 35177 ft | 525 kts | 101° |
| 2026-05-07 14:28 | 36.97277 | 24.73187 | 35177 ft | 524 kts | 101° |
| 2026-05-07 14:28 | 36.95583 | 24.82026 | 35180 ft | 522 kts | 101° |
| 2026-05-07 14:29 | 36.93891 | 24.90843 | 35187 ft | 521 kts | 101° |
| 2026-05-07 14:29 | 36.92195 | 24.99628 | 35169 ft | 519 kts | 101° |
| 2026-05-07 14:30 | 36.90490 | 25.08385 | 35167 ft | 518 kts | 101° |
| 2026-05-07 14:30 | 36.88784 | 25.17122 | 35167 ft | 517 kts | 101° |
| 2026-05-07 14:31 | 36.87086 | 25.25795 | 35167 ft | 516 kts | 101° |
| 2026-05-07 14:31 | 36.85378 | 25.34502 | 35183 ft | 515 kts | 101° |
| 2026-05-07 14:32 | 36.83665 | 25.43183 | 35184 ft | 515 kts | 102° |
| 2026-05-07 14:32 | 36.81947 | 25.51852 | 35185 ft | 514 kts | 102° |
| 2026-05-07 14:33 | 36.80223 | 25.60499 | 35181 ft | 513 kts | 102° |
| 2026-05-07 14:33 | 36.78494 | 25.69124 | 35177 ft | 512 kts | 102° |
| 2026-05-07 14:34 | 36.76774 | 25.77686 | 35180 ft | 511 kts | 102° |
| 2026-05-07 14:34 | 36.75041 | 25.86278 | 35177 ft | 511 kts | 102° |
| 2026-05-07 14:35 | 36.73299 | 25.94858 | 35173 ft | 510 kts | 102° |
| 2026-05-07 14:35 | 36.71559 | 26.03434 | 35168 ft | 510 kts | 102° |
| 2026-05-07 14:36 | 36.69819 | 26.12001 | 35168 ft | 510 kts | 102° |
| 2026-05-07 14:36 | 36.68067 | 26.20568 | 35176 ft | 510 kts | 102° |
| 2026-05-07 14:37 | 36.66283 | 26.29231 | 35146 ft | 522 kts | 102° |
| 2026-05-07 14:37 | 36.63553 | 26.42403 | 35147 ft | 524 kts | 102° |
| 2026-05-07 14:38 | 36.61739 | 26.51182 | 35149 ft | 524 kts | 102° |
| 2026-05-07 14:38 | 36.59915 | 26.59956 | 35150 ft | 523 kts | 102° |
| 2026-05-07 14:39 | 36.58084 | 26.68719 | 35165 ft | 523 kts | 102° |
| 2026-05-07 14:39 | 36.56276 | 26.77306 | 35182 ft | 523 kts | 103° |
| 2026-05-07 14:40 | 36.54424 | 26.86056 | 35173 ft | 523 kts | 102° |
| 2026-05-07 14:40 | 36.52589 | 26.94735 | 35180 ft | 522 kts | 102° |
| 2026-05-07 14:41 | 36.50736 | 27.03458 | 35168 ft | 521 kts | 103° |
| 2026-05-07 14:41 | 36.48871 | 27.12160 | 35178 ft | 521 kts | 103° |
| 2026-05-07 14:42 | 36.47003 | 27.20840 | 35179 ft | 520 kts | 103° |
| 2026-05-07 14:42 | 36.45141 | 27.29512 | 35179 ft | 518 kts | 103° |
| 2026-05-07 14:43 | 36.43599 | 27.36693 | 35177 ft | 517 kts | 103° |
| 2026-05-07 14:43 | 36.41423 | 27.46756 | 35169 ft | 515 kts | 103° |
| 2026-05-07 14:44 | 36.39556 | 27.55320 | 35173 ft | 515 kts | 103° |
| 2026-05-07 14:44 | 36.38112 | 27.61925 | 35166 ft | 514 kts | 103° |
| 2026-05-07 14:45 | 36.36630 | 27.68690 | 35177 ft | 513 kts | 103° |
| 2026-05-07 14:45 | 36.36568 | 27.68974 | 35179 ft | 513 kts | 103° |